Terminal Aerodrome Forecast
Issued by NWS

Home | Current Version | Previous Version | Text Only | Print | Product List | Glossary On
Versions: 1 2 3 4 5 6 7 8 9 10 11 12 13 14 15 16 17 18 19 20
097
FTUS42 KJAX 032341
TAFVQQ
TAF
KVQQ 032341Z 0400/0424 04004KT P6SM SCT030 BKN080
     FM041400 13012KT P6SM SCT030 BKN060=

USA.gov is the U.S. government's official web portal to all federal, state and local government web resources and services.